sensor_id;sensor_type;location;lat;lon;timestamp;temperature;humidity
2973;DHT22;1496;51.404;7.232;2023-02-11T00:01:11;5.40;99.90
2973;DHT22;1496;51.404;7.232;2023-02-11T00:03:38;5.40;99.90
2973;DHT22;1496;51.404;7.232;2023-02-11T00:06:07;5.40;99.90
2973;DHT22;1496;51.404;7.232;2023-02-11T00:08:36;5.40;99.90
2973;DHT22;1496;51.404;7.232;2023-02-11T00:11:05;5.40;99.90
2973;DHT22;1496;51.404;7.232;2023-02-11T00:13:33;5.30;99.90
2973;DHT22;1496;51.404;7.232;2023-02-11T00:15:59;5.30;99.90
2973;DHT22;1496;51.404;7.232;2023-02-11T00:18:25;5.30;99.90
2973;DHT22;1496;51.404;7.232;2023-02-11T00:20:51;5.30;99.90
2973;DHT22;1496;51.404;7.232;2023-02-11T00:23:18;5.20;99.90
2973;DHT22;1496;51.404;7.232;2023-02-11T00:25:46;5.20;99.90
2973;DHT22;1496;51.404;7.232;2023-02-11T00:28:13;5.30;99.90
2973;DHT22;1496;51.404;7.232;2023-02-11T00:30:39;5.20;99.90
2973;DHT22;1496;51.404;7.232;2023-02-11T00:33:08;5.30;99.90
2973;DHT22;1496;51.404;7.232;2023-02-11T00:35:36;5.30;99.90
2973;DHT22;1496;51.404;7.232;2023-02-11T00:38:03;5.30;99.90
2973;DHT22;1496;51.404;7.232;2023-02-11T00:40:30;5.30;99.90
2973;DHT22;1496;51.404;7.232;2023-02-11T00:42:56;5.30;99.90
2973;DHT22;1496;51.404;7.232;2023-02-11T00:45:24;5.30;99.90
2973;DHT22;1496;51.404;7.232;2023-02-11T00:47:51;5.30;99.90
2973;DHT22;1496;51.404;7.232;2023-02-11T00:50:20;5.30;99.90
2973;DHT22;1496;51.404;7.232;2023-02-11T00:52:48;5.30;99.90
2973;DHT22;1496;51.404;7.232;2023-02-11T00:55:17;5.40;99.90
2973;DHT22;1496;51.404;7.232;2023-02-11T00:57:45;5.40;99.90
2973;DHT22;1496;51.404;7.232;2023-02-11T01:00:13;5.40;99.90
2973;DHT22;1496;51.404;7.232;2023-02-11T01:02:43;5.50;99.90
2973;DHT22;1496;51.404;7.232;2023-02-11T01:05:10;5.50;99.90
2973;DHT22;1496;51.404;7.232;2023-02-11T01:07:37;5.50;99.90
2973;DHT22;1496;51.404;7.232;2023-02-11T01:10:03;5.50;99.90
2973;DHT22;1496;51.404;7.232;2023-02-11T01:12:31;5.60;99.90
2973;DHT22;1496;51.404;7.232;2023-02-11T01:14:58;5.50;99.90
2973;DHT22;1496;51.404;7.232;2023-02-11T01:17:24;5.60;99.90
2973;DHT22;1496;51.404;7.232;2023-02-11T01:19:50;5.60;99.90
2973;DHT22;1496;51.404;7.232;2023-02-11T01:22:18;5.60;99.90
2973;DHT22;1496;51.404;7.232;2023-02-11T01:24:47;5.60;99.90
2973;DHT22;1496;51.404;7.232;2023-02-11T01:27:13;5.60;99.90
2973;DHT22;1496;51.404;7.232;2023-02-11T01:29:40;5.60;99.90
2973;DHT22;1496;51.404;7.232;2023-02-11T01:32:07;5.70;99.90
2973;DHT22;1496;51.404;7.232;2023-02-11T01:34:33;5.70;99.90
2973;DHT22;1496;51.404;7.232;2023-02-11T01:37:03;5.60;99.90
2973;DHT22;1496;51.404;7.232;2023-02-11T01:39:34;5.60;99.90
2973;DHT22;1496;51.404;7.232;2023-02-11T01:42:03;5.70;99.90
2973;DHT22;1496;51.404;7.232;2023-02-11T01:44:32;5.60;99.90
2973;DHT22;1496;51.404;7.232;2023-02-11T01:47:00;5.70;99.90
2973;DHT22;1496;51.404;7.232;2023-02-11T01:49:51;5.60;99.90
2973;DHT22;1496;51.404;7.232;2023-02-11T01:52:36;5.60;99.90
2973;DHT22;1496;51.404;7.232;2023-02-11T01:55:09;5.60;99.90
2973;DHT22;1496;51.404;7.232;2023-02-11T01:57:58;5.70;99.90
2973;DHT22;1496;51.404;7.232;2023-02-11T02:00:46;5.70;99.90
2973;DHT22;1496;51.404;7.232;2023-02-11T02:03:16;5.60;99.90
2973;DHT22;1496;51.404;7.232;2023-02-11T02:06:11;5.60;99.90
2973;DHT22;1496;51.404;7.232;2023-02-11T02:09:19;5.70;99.90
2973;DHT22;1496;51.404;7.232;2023-02-11T02:11:47;5.70;99.90
2973;DHT22;1496;51.404;7.232;2023-02-11T02:14:14;5.60;99.90
2973;DHT22;1496;51.404;7.232;2023-02-11T02:16:40;5.60;99.90
2973;DHT22;1496;51.404;7.232;2023-02-11T02:19:55;5.50;99.90
2973;DHT22;1496;51.404;7.232;2023-02-11T02:38:43;5.40;99.90
2973;DHT22;1496;51.404;7.232;2023-02-11T02:41:20;5.40;99.90
2973;DHT22;1496;51.404;7.232;2023-02-11T02:43:49;5.40;99.90
2973;DHT22;1496;51.404;7.232;2023-02-11T02:48:48;5.50;99.90
2973;DHT22;1496;51.404;7.232;2023-02-11T02:51:53;5.40;99.90
2973;DHT22;1496;51.404;7.232;2023-02-11T03:00:16;5.40;99.90
2973;DHT22;1496;51.404;7.232;2023-02-11T03:08:38;5.40;99.90
2973;DHT22;1496;51.404;7.232;2023-02-11T03:11:09;5.30;99.90
2973;DHT22;1496;51.404;7.232;2023-02-11T03:13:38;5.40;99.90
2973;DHT22;1496;51.404;7.232;2023-02-11T03:16:22;5.40;99.90
2973;DHT22;1496;51.404;7.232;2023-02-11T03:19:13;5.40;99.90
2973;DHT22;1496;51.404;7.232;2023-02-11T03:21:42;5.40;99.90
2973;DHT22;1496;51.404;7.232;2023-02-11T03:24:24;5.30;99.90
2973;DHT22;1496;51.404;7.232;2023-02-11T03:26:56;5.30;99.90
2973;DHT22;1496;51.404;7.232;2023-02-11T03:32:38;5.30;99.90
2973;DHT22;1496;51.404;7.232;2023-02-11T03:35:15;5.30;99.90
2973;DHT22;1496;51.404;7.232;2023-02-11T03:37:59;5.30;99.90
2973;DHT22;1496;51.404;7.232;2023-02-11T03:40:28;5.40;99.90
2973;DHT22;1496;51.404;7.232;2023-02-11T03:43:14;5.40;99.90
2973;DHT22;1496;51.404;7.232;2023-02-11T03:45:44;5.30;99.90
2973;DHT22;1496;51.404;7.232;2023-02-11T03:48:18;5.30;99.90
2973;DHT22;1496;51.404;7.232;2023-02-11T03:50:46;5.30;99.90
2973;DHT22;1496;51.404;7.232;2023-02-11T03:53:14;5.40;99.90
2973;DHT22;1496;51.404;7.232;2023-02-11T03:55:42;5.30;99.90
2973;DHT22;1496;51.404;7.232;2023-02-11T03:58:09;5.30;99.90
2973;DHT22;1496;51.404;7.232;2023-02-11T04:00:38;5.30;99.90
2973;DHT22;1496;51.404;7.232;2023-02-11T04:03:07;5.30;99.90
2973;DHT22;1496;51.404;7.232;2023-02-11T04:05:34;5.30;99.90
2973;DHT22;1496;51.404;7.232;2023-02-11T04:08:01;5.30;99.90
2973;DHT22;1496;51.404;7.232;2023-02-11T04:10:29;5.30;99.90
2973;DHT22;1496;51.404;7.232;2023-02-11T04:12:55;5.30;99.90
2973;DHT22;1496;51.404;7.232;2023-02-11T04:15:23;5.20;99.90
2973;DHT22;1496;51.404;7.232;2023-02-11T04:17:50;5.20;99.90
2973;DHT22;1496;51.404;7.232;2023-02-11T04:20:16;5.20;99.90
2973;DHT22;1496;51.404;7.232;2023-02-11T04:22:42;5.20;1.00
2973;DHT22;1496;51.404;7.232;2023-02-11T04:25:08;5.20;1.00
2973;DHT22;1496;51.404;7.232;2023-02-11T04:27:35;5.20;1.00
2973;DHT22;1496;51.404;7.232;2023-02-11T04:30:04;5.10;1.00
2973;DHT22;1496;51.404;7.232;2023-02-11T04:32:30;5.10;1.00
2973;DHT22;1496;51.404;7.232;2023-02-11T04:34:58;5.20;1.00
2973;DHT22;1496;51.404;7.232;2023-02-11T04:37:24;5.20;1.00
2973;DHT22;1496;51.404;7.232;2023-02-11T04:39:51;5.20;1.00
2973;DHT22;1496;51.404;7.232;2023-02-11T04:42:17;5.20;1.00
2973;DHT22;1496;51.404;7.232;2023-02-11T04:44:44;5.20;1.00
2973;DHT22;1496;51.404;7.232;2023-02-11T04:47:11;5.20;1.00
2973;DHT22;1496;51.404;7.232;2023-02-11T04:49:40;5.20;1.00
2973;DHT22;1496;51.404;7.232;2023-02-11T04:52:07;5.20;1.00
2973;DHT22;1496;51.404;7.232;2023-02-11T04:54:33;5.20;1.00
2973;DHT22;1496;51.404;7.232;2023-02-11T04:57:00;5.10;1.00
2973;DHT22;1496;51.404;7.232;2023-02-11T04:59:27;5.10;1.00
2973;DHT22;1496;51.404;7.232;2023-02-11T05:01:53;5.20;1.00
2973;DHT22;1496;51.404;7.232;2023-02-11T05:04:21;5.10;1.00
2973;DHT22;1496;51.404;7.232;2023-02-11T05:06:47;5.10;16.50
2973;DHT22;1496;51.404;7.232;2023-02-11T05:09:14;5.10;99.90
2973;DHT22;1496;51.404;7.232;2023-02-11T05:11:41;5.10;99.90
2973;DHT22;1496;51.404;7.232;2023-02-11T05:14:09;5.10;1.00
2973;DHT22;1496;51.404;7.232;2023-02-11T05:16:36;5.10;1.00
2973;DHT22;1496;51.404;7.232;2023-02-11T05:19:03;5.10;99.90
2973;DHT22;1496;51.404;7.232;2023-02-11T05:21:30;5.10;1.00
2973;DHT22;1496;51.404;7.232;2023-02-11T05:23:57;5.00;1.00
2973;DHT22;1496;51.404;7.232;2023-02-11T05:26:25;5.10;99.90
2973;DHT22;1496;51.404;7.232;2023-02-11T05:28:52;5.10;99.90
2973;DHT22;1496;51.404;7.232;2023-02-11T05:31:19;5.00;99.90
2973;DHT22;1496;51.404;7.232;2023-02-11T05:33:46;5.00;99.90
2973;DHT22;1496;51.404;7.232;2023-02-11T05:36:13;5.00;99.90
2973;DHT22;1496;51.404;7.232;2023-02-11T05:38:40;5.00;99.90
2973;DHT22;1496;51.404;7.232;2023-02-11T05:41:09;5.00;99.90
2973;DHT22;1496;51.404;7.232;2023-02-11T05:43:37;5.00;99.90
2973;DHT22;1496;51.404;7.232;2023-02-11T05:46:04;5.00;99.90
2973;DHT22;1496;51.404;7.232;2023-02-11T05:48:32;5.00;99.90
2973;DHT22;1496;51.404;7.232;2023-02-11T05:50:59;5.00;99.90
2973;DHT22;1496;51.404;7.232;2023-02-11T05:53:25;5.00;99.90
2973;DHT22;1496;51.404;7.232;2023-02-11T05:55:53;5.00;99.90
2973;DHT22;1496;51.404;7.232;2023-02-11T05:58:22;5.00;99.90
2973;DHT22;1496;51.404;7.232;2023-02-11T06:00:48;5.00;99.90
2973;DHT22;1496;51.404;7.232;2023-02-11T06:03:16;5.00;99.90
2973;DHT22;1496;51.404;7.232;2023-02-11T06:05:43;5.00;99.90
2973;DHT22;1496;51.404;7.232;2023-02-11T06:08:10;5.00;99.90
2973;DHT22;1496;51.404;7.232;2023-02-11T06:10:38;5.00;99.90
2973;DHT22;1496;51.404;7.232;2023-02-11T06:13:08;5.00;99.90
2973;DHT22;1496;51.404;7.232;2023-02-11T06:15:35;5.00;99.90
2973;DHT22;1496;51.404;7.232;2023-02-11T06:18:01;5.10;99.90
2973;DHT22;1496;51.404;7.232;2023-02-11T06:20:27;5.00;99.90
2973;DHT22;1496;51.404;7.232;2023-02-11T06:22:55;5.00;99.90
2973;DHT22;1496;51.404;7.232;2023-02-11T06:25:22;5.00;99.90
2973;DHT22;1496;51.404;7.232;2023-02-11T06:27:49;5.10;99.90
2973;DHT22;1496;51.404;7.232;2023-02-11T06:30:15;5.00;99.90
2973;DHT22;1496;51.404;7.232;2023-02-11T06:32:43;5.10;99.90
2973;DHT22;1496;51.404;7.232;2023-02-11T06:35:11;5.10;99.90
2973;DHT22;1496;51.404;7.232;2023-02-11T06:37:39;5.10;99.90
2973;DHT22;1496;51.404;7.232;2023-02-11T06:40:07;5.10;99.90
2973;DHT22;1496;51.404;7.232;2023-02-11T06:42:35;5.10;99.90
2973;DHT22;1496;51.404;7.232;2023-02-11T06:45:03;5.10;99.90
2973;DHT22;1496;51.404;7.232;2023-02-11T06:47:35;5.10;99.90
2973;DHT22;1496;51.404;7.232;2023-02-11T06:50:02;5.10;99.90
2973;DHT22;1496;51.404;7.232;2023-02-11T06:52:29;5.10;99.90
2973;DHT22;1496;51.404;7.232;2023-02-11T06:54:58;5.10;99.90
2973;DHT22;1496;51.404;7.232;2023-02-11T06:57:24;5.10;99.90
2973;DHT22;1496;51.404;7.232;2023-02-11T06:59:51;5.20;99.90
2973;DHT22;1496;51.404;7.232;2023-02-11T07:02:17;5.10;99.90
2973;DHT22;1496;51.404;7.232;2023-02-11T07:04:43;5.20;99.90
2973;DHT22;1496;51.404;7.232;2023-02-11T07:07:12;5.20;99.90
2973;DHT22;1496;51.404;7.232;2023-02-11T07:09:40;5.20;99.90
2973;DHT22;1496;51.404;7.232;2023-02-11T07:12:09;5.20;99.90
2973;DHT22;1496;51.404;7.232;2023-02-11T07:14:35;5.20;99.90
2973;DHT22;1496;51.404;7.232;2023-02-11T07:17:03;5.20;99.90
2973;DHT22;1496;51.404;7.232;2023-02-11T07:19:30;5.20;99.90
2973;DHT22;1496;51.404;7.232;2023-02-11T07:21:57;5.20;99.90
2973;DHT22;1496;51.404;7.232;2023-02-11T07:24:23;5.20;99.90
2973;DHT22;1496;51.404;7.232;2023-02-11T07:26:52;5.20;99.90
2973;DHT22;1496;51.404;7.232;2023-02-11T07:29:19;5.20;99.90
2973;DHT22;1496;51.404;7.232;2023-02-11T07:31:45;5.20;99.90
2973;DHT22;1496;51.404;7.232;2023-02-11T07:34:11;5.20;99.90
2973;DHT22;1496;51.404;7.232;2023-02-11T07:36:39;5.20;99.90
2973;DHT22;1496;51.404;7.232;2023-02-11T07:39:08;5.20;99.90
2973;DHT22;1496;51.404;7.232;2023-02-11T07:41:35;5.20;99.90
2973;DHT22;1496;51.404;7.232;2023-02-11T07:44:04;5.20;99.90
2973;DHT22;1496;51.404;7.232;2023-02-11T07:46:31;5.20;99.90
2973;DHT22;1496;51.404;7.232;2023-02-11T07:48:59;5.30;99.90
2973;DHT22;1496;51.404;7.232;2023-02-11T07:51:28;5.30;99.90
2973;DHT22;1496;51.404;7.232;2023-02-11T07:53:57;5.30;99.90
2973;DHT22;1496;51.404;7.232;2023-02-11T07:56:24;5.20;99.90
2973;DHT22;1496;51.404;7.232;2023-02-11T07:58:51;5.30;99.90
2973;DHT22;1496;51.404;7.232;2023-02-11T08:01:22;5.30;99.90
2973;DHT22;1496;51.404;7.232;2023-02-11T08:03:51;5.20;99.90
2973;DHT22;1496;51.404;7.232;2023-02-11T08:06:18;5.30;99.90
2973;DHT22;1496;51.404;7.232;2023-02-11T08:08:48;5.20;99.90
2973;DHT22;1496;51.404;7.232;2023-02-11T08:11:20;5.30;99.90
2973;DHT22;1496;51.404;7.232;2023-02-11T08:13:49;5.30;99.90
2973;DHT22;1496;51.404;7.232;2023-02-11T08:16:24;5.30;99.90
2973;DHT22;1496;51.404;7.232;2023-02-11T08:18:51;5.30;99.90
2973;DHT22;1496;51.404;7.232;2023-02-11T08:21:19;5.30;99.90
2973;DHT22;1496;51.404;7.232;2023-02-11T08:23:46;5.40;99.90
2973;DHT22;1496;51.404;7.232;2023-02-11T08:26:17;5.40;99.90
2973;DHT22;1496;51.404;7.232;2023-02-11T08:28:46;5.40;99.90
2973;DHT22;1496;51.404;7.232;2023-02-11T08:31:15;5.40;99.90
2973;DHT22;1496;51.404;7.232;2023-02-11T08:33:43;5.40;99.90
2973;DHT22;1496;51.404;7.232;2023-02-11T08:36:16;5.50;99.90
2973;DHT22;1496;51.404;7.232;2023-02-11T08:38:44;5.50;99.90
2973;DHT22;1496;51.404;7.232;2023-02-11T08:41:11;5.50;99.90
2973;DHT22;1496;51.404;7.232;2023-02-11T08:43:42;5.50;99.90
2973;DHT22;1496;51.404;7.232;2023-02-11T08:46:15;5.50;99.90
2973;DHT22;1496;51.404;7.232;2023-02-11T08:48:44;5.50;99.90
2973;DHT22;1496;51.404;7.232;2023-02-11T08:51:24;5.50;99.90
2973;DHT22;1496;51.404;7.232;2023-02-11T08:53:59;5.50;99.90
2973;DHT22;1496;51.404;7.232;2023-02-11T08:56:26;5.50;99.90
2973;DHT22;1496;51.404;7.232;2023-02-11T08:58:54;5.50;99.90
2973;DHT22;1496;51.404;7.232;2023-02-11T09:01:23;5.50;99.90
2973;DHT22;1496;51.404;7.232;2023-02-11T09:03:50;5.60;99.90
2973;DHT22;1496;51.404;7.232;2023-02-11T09:06:17;5.60;99.90
2973;DHT22;1496;51.404;7.232;2023-02-11T09:08:46;5.60;99.90
2973;DHT22;1496;51.404;7.232;2023-02-11T09:11:16;5.60;99.90
2973;DHT22;1496;51.404;7.232;2023-02-11T09:13:43;5.60;99.90
2973;DHT22;1496;51.404;7.232;2023-02-11T09:16:19;5.70;99.90
2973;DHT22;1496;51.404;7.232;2023-02-11T09:18:46;5.70;99.90
2973;DHT22;1496;51.404;7.232;2023-02-11T09:21:14;5.70;99.90
2973;DHT22;1496;51.404;7.232;2023-02-11T09:23:41;5.70;99.90
2973;DHT22;1496;51.404;7.232;2023-02-11T09:26:17;5.70;99.90
2973;DHT22;1496;51.404;7.232;2023-02-11T09:28:43;5.70;99.90
2973;DHT22;1496;51.404;7.232;2023-02-11T09:31:16;5.80;99.90
2973;DHT22;1496;51.404;7.232;2023-02-11T09:33:45;5.80;99.90
2973;DHT22;1496;51.404;7.232;2023-02-11T09:36:20;5.80;99.90
2973;DHT22;1496;51.404;7.232;2023-02-11T09:38:49;5.80;99.90
2973;DHT22;1496;51.404;7.232;2023-02-11T09:41:48;5.80;99.90
2973;DHT22;1496;51.404;7.232;2023-02-11T09:44:26;5.80;99.90
2973;DHT22;1496;51.404;7.232;2023-02-11T09:47:20;5.90;99.90
2973;DHT22;1496;51.404;7.232;2023-02-11T09:49:48;5.80;99.90
2973;DHT22;1496;51.404;7.232;2023-02-11T09:52:45;5.90;99.90
2973;DHT22;1496;51.404;7.232;2023-02-11T09:55:28;5.80;99.90
2973;DHT22;1496;51.404;7.232;2023-02-11T09:57:55;5.90;99.90
2973;DHT22;1496;51.404;7.232;2023-02-11T10:00:44;5.90;99.90
2973;DHT22;1496;51.404;7.232;2023-02-11T10:03:25;5.90;99.90
2973;DHT22;1496;51.404;7.232;2023-02-11T10:09:01;5.90;99.90
2973;DHT22;1496;51.404;7.232;2023-02-11T10:14:20;6.00;99.90
2973;DHT22;1496;51.404;7.232;2023-02-11T10:20:03;6.00;99.90
2973;DHT22;1496;51.404;7.232;2023-02-11T10:22:51;6.00;99.90
2973;DHT22;1496;51.404;7.232;2023-02-11T10:25:26;6.00;99.90
2973;DHT22;1496;51.404;7.232;2023-02-11T10:27:56;6.00;99.90
2973;DHT22;1496;51.404;7.232;2023-02-11T10:30:28;6.10;99.90
2973;DHT22;1496;51.404;7.232;2023-02-11T10:33:00;6.10;99.90
2973;DHT22;1496;51.404;7.232;2023-02-11T10:35:27;6.10;99.90
2973;DHT22;1496;51.404;7.232;2023-02-11T10:37:54;6.20;99.90
2973;DHT22;1496;51.404;7.232;2023-02-11T10:40:27;6.20;99.90
2973;DHT22;1496;51.404;7.232;2023-02-11T10:42:57;6.20;99.90
2973;DHT22;1496;51.404;7.232;2023-02-11T10:45:47;6.20;99.90
2973;DHT22;1496;51.404;7.232;2023-02-11T10:48:50;6.20;99.90
2973;DHT22;1496;51.404;7.232;2023-02-11T10:51:20;6.20;99.90
2973;DHT22;1496;51.404;7.232;2023-02-11T10:56:49;6.30;99.90
2973;DHT22;1496;51.404;7.232;2023-02-11T10:59:36;6.30;99.90
2973;DHT22;1496;51.404;7.232;2023-02-11T11:02:22;6.30;99.90
2973;DHT22;1496;51.404;7.232;2023-02-11T11:04:55;6.30;99.90
2973;DHT22;1496;51.404;7.232;2023-02-11T11:07:27;6.30;99.90
2973;DHT22;1496;51.404;7.232;2023-02-11T11:10:10;6.30;99.90
2973;DHT22;1496;51.404;7.232;2023-02-11T11:12:53;6.40;99.90
2973;DHT22;1496;51.404;7.232;2023-02-11T11:15:22;6.40;99.90
2973;DHT22;1496;51.404;7.232;2023-02-11T11:17:50;6.40;99.90
2973;DHT22;1496;51.404;7.232;2023-02-11T11:20:35;6.40;99.90
2973;DHT22;1496;51.404;7.232;2023-02-11T11:23:10;6.30;99.90
2973;DHT22;1496;51.404;7.232;2023-02-11T11:25:43;6.30;99.90
2973;DHT22;1496;51.404;7.232;2023-02-11T11:28:24;6.40;99.90
2973;DHT22;1496;51.404;7.232;2023-02-11T11:30:54;6.40;99.90
2973;DHT22;1496;51.404;7.232;2023-02-11T11:33:42;6.40;99.90
2973;DHT22;1496;51.404;7.232;2023-02-11T11:36:19;6.50;99.90
2973;DHT22;1496;51.404;7.232;2023-02-11T11:38:57;6.40;99.90
2973;DHT22;1496;51.404;7.232;2023-02-11T11:41:31;6.40;99.90
2973;DHT22;1496;51.404;7.232;2023-02-11T11:44:31;6.50;99.90
2973;DHT22;1496;51.404;7.232;2023-02-11T11:47:26;6.50;99.90
2973;DHT22;1496;51.404;7.232;2023-02-11T11:58:19;6.50;99.90
2973;DHT22;1496;51.404;7.232;2023-02-11T12:00:58;6.50;99.90
2973;DHT22;1496;51.404;7.232;2023-02-11T12:12:09;6.60;99.90
2973;DHT22;1496;51.404;7.232;2023-02-11T12:14:54;6.60;99.90
2973;DHT22;1496;51.404;7.232;2023-02-11T12:25:50;6.60;99.90
2973;DHT22;1496;51.404;7.232;2023-02-11T12:28:47;6.60;99.90
2973;DHT22;1496;51.404;7.232;2023-02-11T12:31:46;6.60;99.90
2973;DHT22;1496;51.404;7.232;2023-02-11T12:39:55;6.70;99.90
2973;DHT22;1496;51.404;7.232;2023-02-11T12:48:34;6.70;99.90
2973;DHT22;1496;51.404;7.232;2023-02-11T12:54:16;6.80;99.90
2973;DHT22;1496;51.404;7.232;2023-02-11T13:02:46;6.90;99.90
2973;DHT22;1496;51.404;7.232;2023-02-11T13:05:32;6.90;99.90
2973;DHT22;1496;51.404;7.232;2023-02-11T13:08:26;6.90;99.90
2973;DHT22;1496;51.404;7.232;2023-02-11T13:11:02;6.90;99.90
2973;DHT22;1496;51.404;7.232;2023-02-11T13:22:23;6.90;99.90
2973;DHT22;1496;51.404;7.232;2023-02-11T13:25:20;7.00;99.90
2973;DHT22;1496;51.404;7.232;2023-02-11T13:30:33;6.90;99.90
2973;DHT22;1496;51.404;7.232;2023-02-11T13:33:04;6.90;99.90
2973;DHT22;1496;51.404;7.232;2023-02-11T13:35:40;6.90;99.90
2973;DHT22;1496;51.404;7.232;2023-02-11T13:38:19;6.90;99.90
2973;DHT22;1496;51.404;7.232;2023-02-11T13:41:05;6.90;99.90
2973;DHT22;1496;51.404;7.232;2023-02-11T13:43:34;7.00;99.90
2973;DHT22;1496;51.404;7.232;2023-02-11T13:46:09;7.00;99.90
2973;DHT22;1496;51.404;7.232;2023-02-11T13:48:48;6.90;99.90
2973;DHT22;1496;51.404;7.232;2023-02-11T13:51:37;6.90;99.90
2973;DHT22;1496;51.404;7.232;2023-02-11T13:54:04;7.00;99.90
2973;DHT22;1496;51.404;7.232;2023-02-11T13:56:39;7.00;99.90
2973;DHT22;1496;51.404;7.232;2023-02-11T14:02:24;7.00;99.90
2973;DHT22;1496;51.404;7.232;2023-02-11T14:08:21;7.10;99.90
2973;DHT22;1496;51.404;7.232;2023-02-11T14:19:32;7.00;99.90
2973;DHT22;1496;51.404;7.232;2023-02-11T14:22:18;7.00;99.90
2973;DHT22;1496;51.404;7.232;2023-02-11T14:35:35;7.10;99.90
2973;DHT22;1496;51.404;7.232;2023-02-11T14:41:05;7.10;99.90
2973;DHT22;1496;51.404;7.232;2023-02-11T14:43:44;7.10;99.90
2973;DHT22;1496;51.404;7.232;2023-02-11T14:46:15;7.10;99.90
2973;DHT22;1496;51.404;7.232;2023-02-11T14:48:47;7.20;99.90
2973;DHT22;1496;51.404;7.232;2023-02-11T14:51:19;7.20;99.90
2973;DHT22;1496;51.404;7.232;2023-02-11T14:53:51;7.20;99.90
2973;DHT22;1496;51.404;7.232;2023-02-11T14:56:25;7.20;99.90
2973;DHT22;1496;51.404;7.232;2023-02-11T14:58:57;7.20;99.90
2973;DHT22;1496;51.404;7.232;2023-02-11T15:01:34;7.20;99.90
2973;DHT22;1496;51.404;7.232;2023-02-11T15:04:04;7.30;99.90
2973;DHT22;1496;51.404;7.232;2023-02-11T15:06:38;7.30;99.90
2973;DHT22;1496;51.404;7.232;2023-02-11T15:09:41;7.30;99.90
2973;DHT22;1496;51.404;7.232;2023-02-11T15:12:24;7.30;99.90
2973;DHT22;1496;51.404;7.232;2023-02-11T15:14:53;7.40;99.90
2973;DHT22;1496;51.404;7.232;2023-02-11T15:17:25;7.30;99.90
2973;DHT22;1496;51.404;7.232;2023-02-11T15:19:56;7.40;99.90
2973;DHT22;1496;51.404;7.232;2023-02-11T15:22:27;7.40;99.90
2973;DHT22;1496;51.404;7.232;2023-02-11T15:25:20;7.40;99.90
2973;DHT22;1496;51.404;7.232;2023-02-11T15:27:53;7.40;99.90
2973;DHT22;1496;51.404;7.232;2023-02-11T15:30:30;7.50;99.90
2973;DHT22;1496;51.404;7.232;2023-02-11T15:33:03;7.50;99.90
2973;DHT22;1496;51.404;7.232;2023-02-11T15:35:36;7.50;99.90
2973;DHT22;1496;51.404;7.232;2023-02-11T15:38:03;7.40;99.90
2973;DHT22;1496;51.404;7.232;2023-02-11T15:40:31;7.40;99.90
2973;DHT22;1496;51.404;7.232;2023-02-11T15:42:59;7.50;99.90
2973;DHT22;1496;51.404;7.232;2023-02-11T15:50:53;7.40;99.90
2973;DHT22;1496;51.404;7.232;2023-02-11T15:53:30;7.40;99.90
2973;DHT22;1496;51.404;7.232;2023-02-11T15:58:52;7.40;99.90
2973;DHT22;1496;51.404;7.232;2023-02-11T16:01:28;7.40;99.90
2973;DHT22;1496;51.404;7.232;2023-02-11T16:03:56;7.40;99.90
2973;DHT22;1496;51.404;7.232;2023-02-11T16:06:25;7.40;99.90
2973;DHT22;1496;51.404;7.232;2023-02-11T16:11:33;7.40;99.90
2973;DHT22;1496;51.404;7.232;2023-02-11T16:14:18;7.40;99.90
2973;DHT22;1496;51.404;7.232;2023-02-11T16:16:48;7.40;99.90
2973;DHT22;1496;51.404;7.232;2023-02-11T16:19:21;7.40;99.90
2973;DHT22;1496;51.404;7.232;2023-02-11T16:21:50;7.40;99.90
2973;DHT22;1496;51.404;7.232;2023-02-11T16:24:20;7.30;99.90
2973;DHT22;1496;51.404;7.232;2023-02-11T16:26:50;7.30;99.90
2973;DHT22;1496;51.404;7.232;2023-02-11T16:29:26;7.30;99.90
2973;DHT22;1496;51.404;7.232;2023-02-11T16:32:20;7.30;99.90
2973;DHT22;1496;51.404;7.232;2023-02-11T16:34:49;7.30;99.90
2973;DHT22;1496;51.404;7.232;2023-02-11T16:37:16;7.30;99.90
2973;DHT22;1496;51.404;7.232;2023-02-11T16:39:44;7.30;99.90
2973;DHT22;1496;51.404;7.232;2023-02-11T16:42:12;7.30;99.90
2973;DHT22;1496;51.404;7.232;2023-02-11T16:44:40;7.30;99.90
2973;DHT22;1496;51.404;7.232;2023-02-11T16:47:24;7.30;99.90
2973;DHT22;1496;51.404;7.232;2023-02-11T16:49:51;7.30;99.90
2973;DHT22;1496;51.404;7.232;2023-02-11T16:52:20;7.30;99.90
2973;DHT22;1496;51.404;7.232;2023-02-11T16:54:48;7.30;99.90
2973;DHT22;1496;51.404;7.232;2023-02-11T16:57:18;7.20;99.90
2973;DHT22;1496;51.404;7.232;2023-02-11T16:59:45;7.20;99.90
2973;DHT22;1496;51.404;7.232;2023-02-11T17:02:25;7.20;99.90
2973;DHT22;1496;51.404;7.232;2023-02-11T17:04:57;7.20;99.90
2973;DHT22;1496;51.404;7.232;2023-02-11T17:07:24;7.20;99.90
2973;DHT22;1496;51.404;7.232;2023-02-11T17:09:51;7.20;99.90
2973;DHT22;1496;51.404;7.232;2023-02-11T17:12:19;7.20;99.90
2973;DHT22;1496;51.404;7.232;2023-02-11T17:14:46;7.10;99.90
2973;DHT22;1496;51.404;7.232;2023-02-11T17:17:13;7.20;99.90
2973;DHT22;1496;51.404;7.232;2023-02-11T17:19:41;7.10;99.90
2973;DHT22;1496;51.404;7.232;2023-02-11T17:22:10;7.20;99.90
2973;DHT22;1496;51.404;7.232;2023-02-11T17:24:37;7.10;99.90
2973;DHT22;1496;51.404;7.232;2023-02-11T17:27:05;7.10;99.90
2973;DHT22;1496;51.404;7.232;2023-02-11T17:29:32;7.10;99.90
2973;DHT22;1496;51.404;7.232;2023-02-11T17:31:59;7.10;99.90
2973;DHT22;1496;51.404;7.232;2023-02-11T17:34:26;7.10;99.90
2973;DHT22;1496;51.404;7.232;2023-02-11T17:36:54;7.10;99.90
2973;DHT22;1496;51.404;7.232;2023-02-11T17:39:23;7.10;99.90
2973;DHT22;1496;51.404;7.232;2023-02-11T17:41:51;7.10;99.90
2973;DHT22;1496;51.404;7.232;2023-02-11T17:44:18;7.10;99.90
2973;DHT22;1496;51.404;7.232;2023-02-11T17:46:44;7.00;99.90
2973;DHT22;1496;51.404;7.232;2023-02-11T17:49:12;7.00;99.90
2973;DHT22;1496;51.404;7.232;2023-02-11T17:51:39;7.10;99.90
2973;DHT22;1496;51.404;7.232;2023-02-11T17:54:11;7.00;99.90
2973;DHT22;1496;51.404;7.232;2023-02-11T17:56:38;7.00;99.90
2973;DHT22;1496;51.404;7.232;2023-02-11T17:59:07;7.00;99.90
2973;DHT22;1496;51.404;7.232;2023-02-11T18:01:36;7.00;99.90
2973;DHT22;1496;51.404;7.232;2023-02-11T18:04:05;7.00;99.90
2973;DHT22;1496;51.404;7.232;2023-02-11T18:06:33;7.00;99.90
2973;DHT22;1496;51.404;7.232;2023-02-11T18:09:00;7.10;99.90
2973;DHT22;1496;51.404;7.232;2023-02-11T18:11:32;7.00;99.90
2973;DHT22;1496;51.404;7.232;2023-02-11T18:14:00;7.10;99.90
2973;DHT22;1496;51.404;7.232;2023-02-11T18:16:27;7.10;99.90
2973;DHT22;1496;51.404;7.232;2023-02-11T18:18:57;7.00;99.90
2973;DHT22;1496;51.404;7.232;2023-02-11T18:21:24;7.10;99.90
2973;DHT22;1496;51.404;7.232;2023-02-11T18:23:52;7.00;99.90
2973;DHT22;1496;51.404;7.232;2023-02-11T18:26:22;7.00;99.90
2973;DHT22;1496;51.404;7.232;2023-02-11T18:28:51;7.00;99.90
2973;DHT22;1496;51.404;7.232;2023-02-11T18:31:19;7.00;99.90
2973;DHT22;1496;51.404;7.232;2023-02-11T18:33:48;7.00;99.90
2973;DHT22;1496;51.404;7.232;2023-02-11T18:36:14;7.10;99.90
2973;DHT22;1496;51.404;7.232;2023-02-11T18:38:42;7.10;99.90
2973;DHT22;1496;51.404;7.232;2023-02-11T18:41:12;7.00;99.90
2973;DHT22;1496;51.404;7.232;2023-02-11T18:43:39;7.00;99.90
2973;DHT22;1496;51.404;7.232;2023-02-11T18:46:09;7.00;99.90
2973;DHT22;1496;51.404;7.232;2023-02-11T18:48:36;7.00;99.90
2973;DHT22;1496;51.404;7.232;2023-02-11T18:51:12;7.00;99.90
2973;DHT22;1496;51.404;7.232;2023-02-11T18:53:39;7.10;99.90
2973;DHT22;1496;51.404;7.232;2023-02-11T18:56:18;7.00;99.90
2973;DHT22;1496;51.404;7.232;2023-02-11T18:58:45;7.00;99.90
2973;DHT22;1496;51.404;7.232;2023-02-11T19:01:16;7.00;99.90
2973;DHT22;1496;51.404;7.232;2023-02-11T19:03:44;7.00;99.90
2973;DHT22;1496;51.404;7.232;2023-02-11T19:06:23;7.10;99.90
2973;DHT22;1496;51.404;7.232;2023-02-11T19:08:55;7.00;99.90
2973;DHT22;1496;51.404;7.232;2023-02-11T19:11:21;7.00;99.90